Time;durP1;ratioP1;P1;durP2;ratioP2;P2;SDS_P1;SDS_P2;PMS_P1;PMS_P2;Temp;Humidity;BMP_temperature;BMP_pressure;BME280_temperature;BME280_humidity;BME280_pressure;Samples;Min_cycle;Max_cycle;Signal;HPM_P1;HPM_P2
2022/03/23 00:00:10;;;;;;;;;;;25.20;99.90;;;;;;4937078;29;20083;-82
2022/03/23 00:02:37;;;;;;;16.67;4.22;;;25.10;99.90;;;;;;4918777;29;19907;-82
2022/03/23 00:05:10;;;;;;;13.50;4.70;;;24.90;99.90;;;;;;4935378;29;20028;-82
2022/03/23 00:07:38;;;;;;;15.85;4.32;;;24.90;99.90;;;;;;4919231;29;20027;-79
2022/03/23 00:10:38;;;;;;;17.33;5.10;;;24.90;99.90;;;;;;4986519;23;20048;-81
2022/03/23 00:13:06;;;;;;;14.70;5.15;;;24.90;99.90;;;;;;4910781;29;20064;-80
2022/03/23 00:15:48;;;;;;;13.60;3.78;;;24.90;99.90;;;;;;4900767;29;20433;-80
2022/03/23 00:18:16;;;;;;;19.98;5.80;;;24.80;99.90;;;;;;4896043;29;20382;-80
2022/03/23 00:20:43;;;;;;;21.40;4.13;;;24.70;99.90;;;;;;4881539;29;20036;-79
2022/03/23 00:23:11;;;;;;;21.52;5.43;;;24.70;99.90;;;;;;4881766;29;20039;-79
2022/03/23 00:25:38;;;;;;;18.00;3.95;;;24.80;99.90;;;;;;4881485;29;20024;-78
2022/03/23 00:28:07;;;;;;;14.10;3.90;;;24.80;99.90;;;;;;4881616;29;20035;-79
2022/03/23 00:30:34;;;;;;;17.63;4.30;;;24.80;99.90;;;;;;4881490;29;20029;-78
2022/03/23 00:33:02;;;;;;;13.73;4.82;;;24.90;99.90;;;;;;4881543;29;20041;-79
2022/03/23 00:35:31;;;;;;;11.70;2.92;;;25.10;99.90;;;;;;4898212;29;20041;-78
2022/03/23 00:37:59;;;;;;;12.90;3.38;;;25.10;99.90;;;;;;4898038;29;20510;-82
2022/03/23 00:40:30;;;;;;;14.00;3.65;;;25.20;99.90;;;;;;5554816;23;20055;-79
2022/03/23 00:43:01;;;;;;;17.27;3.70;;;25.30;99.90;;;;;;4936319;29;20425;-82
2022/03/23 00:45:31;;;;;;;14.85;3.58;;;25.30;99.90;;;;;;4936524;29;20071;-83
2022/03/23 00:47:59;;;;;;;15.27;3.92;;;25.50;99.90;;;;;;4919147;29;20081;-80
2022/03/23 00:50:27;;;;;;;18.17;4.45;;;25.60;99.90;;;;;;4919417;29;20393;-79
2022/03/23 00:52:54;;;;;;;14.00;3.45;;;25.70;99.90;;;;;;4929704;29;20078;-81
2022/03/23 00:55:21;;;;;;;12.00;3.47;;;25.70;99.90;;;;;;4899530;29;20039;-80
2022/03/23 00:57:49;;;;;;;13.38;4.72;;;25.70;99.90;;;;;;4899127;29;20120;-78
2022/03/23 01:00:20;;;;;;;12.27;3.83;;;25.60;99.90;;;;;;4916078;29;20017;-81
2022/03/23 01:02:48;;;;;;;9.23;3.90;;;25.60;99.90;;;;;;4916909;29;20459;-79
2022/03/23 01:05:16;;;;;;;10.70;4.57;;;25.70;99.90;;;;;;4916883;29;20445;-81
2022/03/23 01:07:44;;;;;;;18.35;5.32;;;25.70;99.90;;;;;;4916834;29;20032;-79
2022/03/23 01:10:14;;;;;;;8.98;3.53;;;25.70;99.90;;;;;;4916771;29;20024;-80
2022/03/23 01:12:43;;;;;;;13.40;3.70;;;25.90;99.90;;;;;;4916166;29;20143;-80
2022/03/23 01:15:13;;;;;;;22.70;5.03;;;25.80;99.90;;;;;;4914624;29;20119;-80
2022/03/23 01:17:40;;;;;;;18.58;6.20;;;25.90;99.90;;;;;;4915426;29;20020;-85
2022/03/23 01:20:11;;;;;;;19.02;5.35;;;25.80;99.90;;;;;;4915285;29;20115;-83
2022/03/23 01:22:40;;;;;;;19.67;7.13;;;25.70;99.90;;;;;;5172399;23;20143;-77
2022/03/23 01:25:09;;;;;;;17.30;5.75;;;25.60;99.90;;;;;;4883345;29;20047;-79
2022/03/23 01:27:38;;;;;;;19.45;8.20;;;25.50;99.90;;;;;;4897448;29;20056;-79
2022/03/23 01:30:23;;;;;;;16.20;7.80;;;25.40;99.90;;;;;;4881371;29;20044;-83
2022/03/23 01:32:55;;;;;;;13.60;6.70;;;25.40;99.90;;;;;;4900188;29;20052;-80
2022/03/23 01:35:35;;;;;;;13.25;6.15;;;25.40;99.90;;;;;;4900231;29;20048;-82
2022/03/23 01:38:04;;;;;;;17.40;5.90;;;25.50;99.90;;;;;;4900011;29;20079;-78
2022/03/23 01:40:33;;;;;;;19.90;6.38;;;25.40;99.90;;;;;;4916324;29;20112;-81
2022/03/23 01:43:00;;;;;;;19.85;6.32;;;25.40;99.90;;;;;;4897242;29;20042;-76
2022/03/23 01:45:29;;;;;;;16.58;8.05;;;25.30;99.90;;;;;;4898403;29;20679;-81
2022/03/23 01:48:00;;;;;;;24.60;7.00;;;25.20;99.90;;;;;;4899599;29;20103;-79
2022/03/23 01:50:28;;;;;;;16.63;6.15;;;25.20;99.90;;;;;;4896825;29;20581;-77
2022/03/23 01:52:56;;;;;;;14.23;5.45;;;25.10;99.90;;;;;;4916145;29;20028;-79
2022/03/23 01:55:25;;;;;;;17.70;6.35;;;25.00;99.90;;;;;;4908876;29;20039;-77
2022/03/23 01:57:55;;;;;;;18.45;6.10;;;24.90;99.90;;;;;;4904135;29;20036;-76
2022/03/23 02:00:22;;;;;;;20.85;6.22;;;24.90;99.90;;;;;;4880058;29;20060;-77
2022/03/23 02:02:50;;;;;;;16.75;6.07;;;24.90;99.90;;;;;;4880162;29;20029;-81
2022/03/23 02:05:22;;;;;;;20.70;7.95;;;25.00;99.90;;;;;;4896717;29;20067;-77
2022/03/23 02:07:56;;;;;;;16.77;6.88;;;25.00;99.90;;;;;;4864272;29;20069;-74
2022/03/23 02:10:41;;;;;;;11.35;4.30;;;25.10;99.90;;;;;;4880882;29;20036;-79
2022/03/23 02:13:09;;;;;;;17.48;4.38;;;25.20;99.90;;;;;;4896233;29;20136;-76
2022/03/23 02:15:38;;;;;;;18.95;5.32;;;25.20;99.90;;;;;;4880076;29;20068;-75
2022/03/23 02:18:06;;;;;;;14.63;4.50;;;25.20;99.90;;;;;;4896250;29;20108;-78
2022/03/23 02:20:33;;;;;;;10.13;4.45;;;25.10;99.90;;;;;;5058693;23;20090;-74
2022/03/23 02:23:01;;;;;;;13.52;4.65;;;25.10;99.90;;;;;;4934792;29;20107;-73
2022/03/23 02:25:30;;;;;;;15.13;4.35;;;25.10;99.90;;;;;;4934876;29;20136;-74
2022/03/23 02:27:57;;;;;;;14.95;4.15;;;25.10;99.90;;;;;;4918397;29;20039;-75
2022/03/23 02:30:32;;;;;;;14.63;3.83;;;24.90;99.90;;;;;;4921454;29;20091;-77
2022/03/23 02:33:05;;;;;;;14.30;4.50;;;24.90;99.90;;;;;;4938679;29;20102;-78
2022/03/23 02:35:37;;;;;;;11.05;3.85;;;24.90;99.90;;;;;;4937674;29;20724;-78
2022/03/23 02:38:29;;;;;;;14.13;3.78;;;24.90;99.90;;;;;;4920748;29;20024;-76
2022/03/23 02:40:56;;;;;;;16.23;3.50;;;25.00;99.90;;;;;;4908775;29;20123;-78
2022/03/23 02:43:25;;;;;;;14.25;3.55;;;25.20;99.90;;;;;;4921248;29;20032;-80
2022/03/23 02:45:52;;;;;;;12.80;3.00;;;25.20;99.90;;;;;;4938373;29;20027;-75
2022/03/23 02:48:23;;;;;;;13.68;4.30;;;25.30;99.90;;;;;;4938004;29;20024;-74
2022/03/23 02:50:50;;;;;;;20.48;3.60;;;25.30;99.90;;;;;;4938042;29;20136;-76
2022/03/23 03:02:35;;;;;;;11.27;2.38;;;25.60;99.90;;;;;;4935012;29;20591;-76
2022/03/23 03:05:04;;;;;;;16.05;2.38;;;25.70;99.90;;;;;;4921022;29;20126;-77
2022/03/23 03:10:51;;;;;;;19.27;2.58;;;25.60;99.90;;;;;;4924528;29;20151;-88
2022/03/23 03:13:24;;;;;;;13.70;3.25;;;25.50;99.60;;;;;;4938349;29;20050;-82
2022/03/23 03:15:52;;;;;;;16.05;3.35;;;25.30;99.90;;;;;;4920655;29;20027;-76
2022/03/23 03:18:38;;;;;;;12.00;2.65;;;25.20;99.90;;;;;;4938014;29;20020;-77
2022/03/23 03:21:08;;;;;;;13.05;2.58;;;25.70;99.80;;;;;;4922605;29;20047;-75
2022/03/23 03:23:41;;;;;;;13.00;3.30;;;26.50;99.20;;;;;;4922565;29;20041;-82
2022/03/23 03:26:23;;;;;;;15.25;2.78;;;27.10;98.60;;;;;;4920609;29;20024;-82
2022/03/23 03:28:53;;;;;;;13.73;3.15;;;27.60;97.20;;;;;;4938044;29;20110;-77
2022/03/23 03:31:24;;;;;;;11.45;2.65;;;27.50;97.10;;;;;;4937599;29;20036;-74
2022/03/23 03:33:51;;;;;;;11.80;2.97;;;27.30;96.80;;;;;;4919112;29;20106;-75
2022/03/23 03:36:19;;;;;;;16.00;3.38;;;26.90;96.80;;;;;;4937199;29;20036;-75
2022/03/23 03:38:46;;;;;;;11.75;2.20;;;26.60;97.20;;;;;;4925274;29;20031;-75
2022/03/23 03:41:14;;;;;;;13.00;2.63;;;26.30;97.50;;;;;;4927557;29;20031;-77
2022/03/23 03:43:41;;;;;;;17.73;3.85;;;26.20;97.60;;;;;;4917667;29;20035;-78
2022/03/23 03:46:10;;;;;;;12.48;2.95;;;26.50;98.00;;;;;;4900598;29;20039;-80
2022/03/23 03:48:40;;;;;;;10.88;2.13;;;26.70;97.30;;;;;;4918905;29;20103;-79
2022/03/23 03:51:08;;;;;;;18.88;2.60;;;26.70;97.10;;;;;;4919417;29;20028;-79
2022/03/23 03:53:37;;;;;;;16.00;2.97;;;26.70;97.20;;;;;;4905080;29;20032;-79
2022/03/23 03:56:05;;;;;;;15.80;2.47;;;26.50;97.30;;;;;;4902798;29;20561;-77
2022/03/23 03:58:32;;;;;;;15.77;3.00;;;26.40;97.50;;;;;;4917242;29;20024;-75
2022/03/23 04:00:59;;;;;;;13.98;2.25;;;26.20;98.00;;;;;;4931141;29;20024;-76
2022/03/23 04:03:27;;;;;;;14.10;3.05;;;26.10;98.30;;;;;;4916263;29;20126;-76
2022/03/23 04:05:54;;;;;;;22.02;2.78;;;26.10;98.20;;;;;;4930718;29;20497;-76
2022/03/23 04:08:21;;;;;;;19.25;2.45;;;26.10;97.80;;;;;;4900407;29;20107;-76
2022/03/23 04:10:49;;;;;;;11.43;2.25;;;26.20;98.00;;;;;;4901202;29;20020;-73
2022/03/23 04:13:17;;;;;;;10.35;1.75;;;26.30;98.10;;;;;;4918077;29;20055;-74
2022/03/23 04:15:45;;;;;;;9.82;2.05;;;26.20;98.00;;;;;;4918223;29;20123;-74
2022/03/23 04:18:12;;;;;;;15.40;3.10;;;25.90;98.10;;;;;;4917587;29;20493;-76
2022/03/23 04:20:39;;;;;;;18.13;2.95;;;25.80;98.70;;;;;;4917133;29;20100;-77
2022/03/23 04:23:34;;;;;;;11.20;2.08;;;25.60;98.90;;;;;;4932289;29;20036;-78
2022/03/23 04:26:04;;;;;;;13.93;2.08;;;25.40;98.90;;;;;;4899222;29;20481;-76
2022/03/23 04:28:42;;;;;;;8.95;1.52;;;25.20;99.50;;;;;;4980070;23;20126;-77
2022/03/23 04:31:18;;;;;;;14.32;2.05;;;25.10;99.80;;;;;;4955596;29;20034;-75
2022/03/23 04:33:46;;;;;;;13.13;1.92;;;25.00;99.90;;;;;;4939286;29;20020;-73
2022/03/23 04:36:13;;;;;;;15.05;2.65;;;24.90;99.90;;;;;;4953264;29;20031;-73
2022/03/23 04:38:41;;;;;;;13.75;2.05;;;24.90;99.50;;;;;;4954197;29;20038;-76
2022/03/23 04:41:08;;;;;;;12.57;1.55;;;24.80;99.60;;;;;;4940401;29;20052;-68
2022/03/23 04:43:38;;;;;;;14.60;2.47;;;24.90;99.80;;;;;;4935029;29;20438;-74
